PWSweather.com
Personal Weather Stations
Station Observations

YeovilGB

Lat: 50.949, Lon: -2.627

Elevation: 70

Station Type: Vantage Pro

http://www.yeovil-weather.me.uk/

High Low Average
Temperature 53.2°F11.8°C 37.0°F2.8°C 45.2°F7.3°C
Dew Point 52.2°F11.2°C 35.4°F1.9°C 44.0°F6.7°C
Winds 10.4 mph 16.7 kmh Calm Calm 2.0 mph S3.2 kmh S
Wind Gusts 19.6 mph31.5 kmh -- 5.0 mph8.0 kmh
Humidity 98% 89% 95%
Pressure 29.97 in1014.9 mb 29.76 in1007.8 mb -
Precipitation 0.24 in6.1 mm - -
Hour Temp Dew Point Humidity Winds Wind Gusts Pressure Precip Precip Rate Daily Precip Total
12:00 AM 37.0°F2.8°C 35.4°F1.9°C 94% Calm Calm -- 29.91 in1012.9 mb - 0.00 in0.0 mm 0.00 in0.0 mm
12:10 AM 37.0°F2.8°C 35.4°F1.9°C 94% Calm Calm -- 29.91 in1012.9 mb - 0.00 in0.0 mm 0.00 in0.0 mm
12:20 AM 37.2°F2.9°C 35.6°F2.0°C 94% Calm Calm -- 29.92 in1013.2 mb - 0.00 in0.0 mm 0.00 in0.0 mm
12:30 AM 37.3°F2.9°C 35.7°F2.1°C 94% Calm Calm -- 29.93 in1013.5 mb - 0.00 in0.0 mm 0.00 in0.0 mm
12:40 AM 37.2°F2.9°C 35.6°F2.0°C 94% Calm Calm -- 29.93 in1013.5 mb - 0.00 in0.0 mm 0.00 in0.0 mm
12:50 AM 37.1°F2.8°C 35.5°F1.9°C 94% Calm Calm -- 29.94 in1013.9 mb - 0.00 in0.0 mm 0.00 in0.0 mm
01:00 AM 37.0°F2.8°C 35.4°F1.9°C 94% Calm Calm 1.2 mph1.9 kmh 29.93 in1013.5 mb - 0.00 in0.0 mm 0.00 in0.0 mm
01:10 AM 37.0°F2.8°C 35.4°F1.9°C 94% Calm Calm -- 29.94 in1013.9 mb - 0.00 in0.0 mm 0.00 in0.0 mm
01:20 AM 37.0°F2.8°C 35.4°F1.9°C 94% Calm Calm -- 29.94 in1013.9 mb - 0.00 in0.0 mm 0.00 in0.0 mm
01:30 AM 37.0°F2.8°C 35.7°F2.1°C 95% Calm Calm -- 29.94 in1013.9 mb - 0.00 in0.0 mm 0.00 in0.0 mm
01:40 AM 37.1°F2.8°C 35.5°F1.9°C 94% Calm Calm -- 29.95 in1014.2 mb - 0.00 in0.0 mm 0.00 in0.0 mm
01:50 AM 37.2°F2.9°C 35.9°F2.2°C 95% Calm Calm -- 29.94 in1013.9 mb - 0.00 in0.0 mm 0.00 in0.0 mm
02:00 AM 37.2°F2.9°C 35.9°F2.2°C 95% Calm Calm -- 29.95 in1014.2 mb - 0.00 in0.0 mm 0.00 in0.0 mm
02:10 AM 37.2°F2.9°C 35.9°F2.2°C 95% Calm Calm -- 29.95 in1014.2 mb - 0.00 in0.0 mm 0.00 in0.0 mm
02:20 AM 37.3°F2.9°C 36.0°F2.2°C 95% Calm Calm -- 29.95 in1014.2 mb - 0.00 in0.0 mm 0.00 in0.0 mm
02:30 AM 37.3°F2.9°C 36.0°F2.2°C 95% Calm Calm -- 29.95 in1014.2 mb - 0.00 in0.0 mm 0.00 in0.0 mm
02:40 AM 37.4°F3.0°C 36.1°F2.3°C 95% Calm Calm -- 29.95 in1014.2 mb - 0.00 in0.0 mm 0.00 in0.0 mm
02:50 AM 37.4°F3.0°C 36.1°F2.3°C 95% Calm Calm -- 29.95 in1014.2 mb - 0.00 in0.0 mm 0.00 in0.0 mm
03:00 AM 37.5°F3.1°C 36.2°F2.3°C 95% Calm Calm -- 29.96 in1014.6 mb - 0.00 in0.0 mm 0.00 in0.0 mm
03:10 AM 37.5°F3.1°C 36.2°F2.3°C 95% Calm Calm -- 29.96 in1014.6 mb - 0.00 in0.0 mm 0.00 in0.0 mm
03:20 AM 37.6°F3.1°C 36.3°F2.4°C 95% Calm Calm -- 29.95 in1014.2 mb - 0.00 in0.0 mm 0.00 in0.0 mm
03:30 AM 37.6°F3.1°C 36.3°F2.4°C 95% Calm Calm 2.3 mph3.7 kmh 29.94 in1013.9 mb - 0.00 in0.0 mm 0.00 in0.0 mm
03:40 AM 37.7°F3.2°C 36.4°F2.4°C 95% Calm Calm -- 29.94 in1013.9 mb - 0.00 in0.0 mm 0.00 in0.0 mm
03:50 AM 37.7°F3.2°C 36.4°F2.4°C 95% 1.2 mph SSE1.9 kmh SSE 2.3 mph3.7 kmh 29.95 in1014.2 mb - 0.00 in0.0 mm 0.00 in0.0 mm
04:00 AM 37.7°F3.2°C 36.4°F2.4°C 95% Calm Calm -- 29.95 in1014.2 mb - 0.00 in0.0 mm 0.00 in0.0 mm
04:10 AM 37.7°F3.2°C 36.4°F2.4°C 95% Calm Calm -- 29.96 in1014.6 mb - 0.00 in0.0 mm 0.00 in0.0 mm
04:20 AM 37.7°F3.2°C 36.4°F2.4°C 95% Calm Calm -- 29.97 in1014.9 mb - 0.00 in0.0 mm 0.00 in0.0 mm
04:30 AM 37.8°F3.2°C 36.5°F2.5°C 95% Calm Calm 1.2 mph1.9 kmh 29.97 in1014.9 mb - 0.00 in0.0 mm 0.00 in0.0 mm
04:40 AM 37.8°F3.2°C 36.5°F2.5°C 95% Calm Calm -- 29.96 in1014.6 mb - 0.00 in0.0 mm 0.00 in0.0 mm
04:50 AM 37.8°F3.2°C 36.5°F2.5°C 95% Calm Calm 3.5 mph5.6 kmh 29.96 in1014.6 mb - 0.00 in0.0 mm 0.00 in0.0 mm
05:00 AM 37.8°F3.2°C 36.5°F2.5°C 95% Calm Calm 3.5 mph5.6 kmh 29.95 in1014.2 mb - 0.00 in0.0 mm 0.00 in0.0 mm
05:10 AM 37.8°F3.2°C 36.5°F2.5°C 95% 2.3 mph SE3.7 kmh SE 5.8 mph9.3 kmh 29.92 in1013.2 mb - 0.00 in0.0 mm 0.00 in0.0 mm
05:20 AM 37.8°F3.2°C 36.5°F2.5°C 95% Calm Calm -- 29.95 in1014.2 mb - 0.00 in0.0 mm 0.00 in0.0 mm
05:30 AM 37.9°F3.3°C 36.6°F2.6°C 95% Calm Calm -- 29.96 in1014.6 mb - 0.00 in0.0 mm 0.00 in0.0 mm
05:40 AM 37.9°F3.3°C 36.6°F2.6°C 95% 1.2 mph SE1.9 kmh SE -- 29.95 in1014.2 mb - 0.00 in0.0 mm 0.00 in0.0 mm
05:50 AM 37.9°F3.3°C 36.6°F2.6°C 95% Calm Calm 1.2 mph1.9 kmh 29.94 in1013.9 mb - 0.00 in0.0 mm 0.00 in0.0 mm
06:00 AM 37.9°F3.3°C 36.6°F2.6°C 95% Calm Calm -- 29.94 in1013.9 mb - 0.00 in0.0 mm 0.00 in0.0 mm
06:10 AM 37.9°F3.3°C 36.6°F2.6°C 95% 1.2 mph SE1.9 kmh SE 3.5 mph5.6 kmh 29.93 in1013.5 mb - 0.00 in0.0 mm 0.00 in0.0 mm
06:20 AM 37.9°F3.3°C 36.6°F2.6°C 95% 1.2 mph SE1.9 kmh SE 2.3 mph3.7 kmh 29.93 in1013.5 mb - 0.00 in0.0 mm 0.00 in0.0 mm
06:30 AM 37.9°F3.3°C 36.6°F2.6°C 95% 1.2 mph SE1.9 kmh SE 9.2 mph14.8 kmh 29.93 in1013.5 mb - 0.00 in0.0 mm 0.00 in0.0 mm
06:40 AM 38.0°F3.3°C 36.7°F2.6°C 95% Calm Calm -- 29.92 in1013.2 mb - 0.00 in0.0 mm 0.00 in0.0 mm
06:50 AM 38.0°F3.3°C 36.7°F2.6°C 95% 1.2 mph SE1.9 kmh SE 2.3 mph3.7 kmh 29.92 in1013.2 mb - 0.01 in0.3 mm 0.01 in0.3 mm
07:00 AM 38.0°F3.3°C 37.0°F2.8°C 96% Calm Calm 3.5 mph5.6 kmh 29.92 in1013.2 mb - 0.00 in0.0 mm 0.01 in0.3 mm
07:10 AM 38.2°F3.4°C 37.2°F2.9°C 96% 1.2 mph E1.9 kmh E 3.5 mph5.6 kmh 29.93 in1013.5 mb - 0.00 in0.0 mm 0.01 in0.3 mm
07:20 AM 38.3°F3.5°C 37.3°F2.9°C 96% Calm Calm 3.5 mph5.6 kmh 29.92 in1013.2 mb - 0.00 in0.0 mm 0.01 in0.3 mm
07:30 AM 38.5°F3.6°C 37.4°F3.0°C 96% 2.3 mph ESE3.7 kmh ESE 4.6 mph7.4 kmh 29.92 in1013.2 mb - 0.00 in0.0 mm 0.01 in0.3 mm
07:40 AM 38.7°F3.7°C 37.6°F3.1°C 96% Calm Calm 2.3 mph3.7 kmh 29.92 in1013.2 mb - 0.00 in0.0 mm 0.01 in0.3 mm
07:50 AM 38.8°F3.8°C 37.8°F3.2°C 96% 2.3 mph SE3.7 kmh SE 5.8 mph9.3 kmh 29.91 in1012.9 mb - 0.00 in0.0 mm 0.01 in0.3 mm
08:00 AM 38.9°F3.8°C 37.9°F3.3°C 96% 1.2 mph ESE1.9 kmh ESE 4.6 mph7.4 kmh 29.91 in1012.9 mb - 0.01 in0.3 mm 0.02 in0.5 mm
08:10 AM 39.2°F4.0°C 38.2°F3.4°C 96% 3.5 mph SE5.6 kmh SE 5.8 mph9.3 kmh 29.91 in1012.9 mb - 0.00 in0.0 mm 0.02 in0.5 mm
08:20 AM 39.4°F4.1°C 38.4°F3.6°C 96% 3.5 mph SE5.6 kmh SE 11.5 mph18.5 kmh 29.90 in1012.5 mb - 0.00 in0.0 mm 0.02 in0.5 mm
08:30 AM 39.6°F4.2°C 38.6°F3.7°C 96% 2.3 mph SE3.7 kmh SE 10.4 mph16.7 kmh 29.90 in1012.5 mb - 0.00 in0.0 mm 0.02 in0.5 mm
08:40 AM 39.8°F4.3°C 38.8°F3.8°C 96% 2.3 mph SE3.7 kmh SE 2.3 mph3.7 kmh 29.90 in1012.5 mb - 0.00 in0.0 mm 0.02 in0.5 mm
08:50 AM 40.0°F4.4°C 39.0°F3.9°C 96% 2.3 mph SE3.7 kmh SE 6.9 mph11.1 kmh 29.89 in1012.2 mb - 0.02 in0.5 mm 0.03 in0.8 mm
09:00 AM 40.2°F4.6°C 39.4°F4.1°C 97% 5.8 mph SSE9.3 kmh SSE 10.4 mph16.7 kmh 29.89 in1012.2 mb - 0.01 in0.3 mm 0.04 in1.0 mm
09:10 AM 40.5°F4.7°C 39.7°F4.3°C 97% 3.5 mph SE5.6 kmh SE 6.9 mph11.1 kmh 29.90 in1012.5 mb - 0.02 in0.5 mm 0.06 in1.5 mm
09:20 AM 40.8°F4.9°C 40.1°F4.5°C 97% 3.5 mph SE5.6 kmh SE 8.1 mph13.0 kmh 29.90 in1012.5 mb - 0.01 in0.3 mm 0.06 in1.5 mm
09:30 AM 41.2°F5.1°C 40.4°F4.7°C 97% 5.8 mph SSE9.3 kmh SSE 9.2 mph14.8 kmh 29.89 in1012.2 mb - 0.02 in0.5 mm 0.07 in1.8 mm
09:40 AM 41.6°F5.3°C 40.8°F4.9°C 97% 2.3 mph SE3.7 kmh SE 8.1 mph13.0 kmh 29.89 in1012.2 mb - 0.00 in0.0 mm 0.07 in1.8 mm
09:50 AM 41.8°F5.4°C 41.0°F5.0°C 97% 5.8 mph SSE9.3 kmh SSE 9.2 mph14.8 kmh 29.88 in1011.9 mb - 0.00 in0.0 mm 0.07 in1.8 mm
10:00 AM 42.1°F5.6°C 41.3°F5.2°C 97% 4.6 mph SE7.4 kmh SE 12.7 mph20.4 kmh 29.88 in1011.9 mb - 0.01 in0.3 mm 0.08 in2.0 mm
10:10 AM 42.3°F5.7°C 41.5°F5.3°C 97% 2.3 mph SE3.7 kmh SE 5.8 mph9.3 kmh 29.87 in1011.5 mb - 0.00 in0.0 mm 0.08 in2.0 mm
10:20 AM 42.5°F5.8°C 41.7°F5.4°C 97% Calm Calm -- 29.87 in1011.5 mb - 0.01 in0.3 mm 0.09 in2.3 mm
10:30 AM 42.8°F6.0°C 42.0°F5.6°C 97% Calm Calm -- 29.87 in1011.5 mb - 0.00 in0.0 mm 0.09 in2.3 mm
10:40 AM 43.2°F6.2°C 42.4°F5.8°C 97% Calm Calm -- 29.87 in1011.5 mb - 0.01 in0.3 mm 0.09 in2.3 mm
10:50 AM 43.6°F6.4°C 42.8°F6.0°C 97% Calm Calm -- 29.86 in1011.2 mb - 0.01 in0.3 mm 0.10 in2.5 mm
11:00 AM 44.0°F6.7°C 43.2°F6.2°C 97% Calm Calm -- 29.86 in1011.2 mb - 0.02 in0.5 mm 0.11 in2.8 mm
11:10 AM 44.3°F6.8°C 43.5°F6.4°C 97% Calm Calm -- 29.86 in1011.2 mb - 0.01 in0.3 mm 0.12 in3.0 mm
11:20 AM 44.6°F7.0°C 43.8°F6.6°C 97% Calm Calm -- 29.86 in1011.2 mb - 0.01 in0.3 mm 0.12 in3.0 mm
11:30 AM 44.9°F7.2°C 44.1°F6.7°C 97% Calm Calm -- 29.86 in1011.2 mb - 0.01 in0.3 mm 0.13 in3.3 mm
11:40 AM 45.3°F7.4°C 44.5°F6.9°C 97% Calm Calm -- 29.85 in1010.8 mb - 0.00 in0.0 mm 0.13 in3.3 mm
11:50 AM 45.7°F7.6°C 45.2°F7.3°C 98% Calm Calm -- 29.85 in1010.8 mb - 0.00 in0.0 mm 0.13 in3.3 mm
12:00 PM 46.0°F7.8°C 45.2°F7.3°C 97% Calm Calm -- 29.84 in1010.5 mb - 0.00 in0.0 mm 0.13 in3.3 mm
12:10 PM 46.3°F7.9°C 45.8°F7.7°C 98% Calm Calm -- 29.84 in1010.5 mb - 0.00 in0.0 mm 0.13 in3.3 mm
12:20 PM 46.5°F8.1°C 45.7°F7.6°C 97% Calm Calm -- 29.84 in1010.5 mb - 0.00 in0.0 mm 0.13 in3.3 mm
12:30 PM 46.7°F8.2°C 45.9°F7.7°C 97% Calm Calm -- 29.84 in1010.5 mb - 0.01 in0.3 mm 0.13 in3.3 mm
12:40 PM 46.9°F8.3°C 46.3°F7.9°C 98% Calm Calm -- 29.83 in1010.2 mb - 0.00 in0.0 mm 0.13 in3.3 mm
12:50 PM 47.0°F8.3°C 46.2°F7.9°C 97% Calm Calm -- 29.82 in1009.8 mb - 0.01 in0.3 mm 0.14 in3.6 mm
01:00 PM 47.2°F8.4°C 46.4°F8.0°C 97% Calm Calm -- 29.82 in1009.8 mb - 0.01 in0.3 mm 0.15 in3.8 mm
01:10 PM 47.4°F8.6°C 46.8°F8.2°C 98% Calm Calm -- 29.82 in1009.8 mb - 0.01 in0.3 mm 0.15 in3.8 mm
01:20 PM 47.4°F8.6°C 46.9°F8.3°C 98% Calm Calm -- 29.81 in1009.5 mb - 0.01 in0.3 mm 0.16 in4.1 mm
01:30 PM 47.6°F8.7°C 47.1°F8.4°C 98% Calm Calm -- 29.81 in1009.5 mb - 0.01 in0.3 mm 0.17 in4.3 mm
01:40 PM 47.7°F8.7°C 46.9°F8.3°C 97% Calm Calm -- 29.82 in1009.8 mb - 0.02 in0.5 mm 0.18 in4.6 mm
01:50 PM 47.9°F8.8°C 47.1°F8.4°C 97% Calm Calm -- 29.81 in1009.5 mb - 0.00 in0.0 mm 0.18 in4.6 mm
02:00 PM 48.1°F8.9°C 47.5°F8.6°C 98% Calm Calm -- 29.81 in1009.5 mb - 0.01 in0.3 mm 0.19 in4.8 mm
02:10 PM 48.3°F9.1°C 47.7°F8.7°C 98% Calm Calm -- 29.80 in1009.1 mb - 0.00 in0.0 mm 0.19 in4.8 mm
02:20 PM 48.4°F9.1°C 47.9°F8.8°C 98% Calm Calm -- 29.80 in1009.1 mb - 0.00 in0.0 mm 0.19 in4.8 mm
02:30 PM 48.4°F9.1°C 47.6°F8.7°C 97% Calm Calm -- 29.79 in1008.8 mb - 0.00 in0.0 mm 0.19 in4.8 mm
02:40 PM 48.5°F9.2°C 47.7°F8.7°C 97% Calm Calm -- 29.79 in1008.8 mb - 0.00 in0.0 mm 0.19 in4.8 mm
02:50 PM 48.7°F9.3°C 48.2°F9.0°C 98% Calm Calm -- 29.79 in1008.8 mb - 0.00 in0.0 mm 0.19 in4.8 mm
03:00 PM 49.6°F9.8°C 49.1°F9.5°C 98% 2.3 mph SW3.7 kmh SW 8.1 mph13.0 kmh 29.78 in1008.5 mb - 0.02 in0.5 mm 0.21 in5.3 mm
03:10 PM 50.9°F10.5°C 50.3°F10.2°C 98% 1.2 mph SW1.9 kmh SW 2.3 mph3.7 kmh 29.78 in1008.5 mb - 0.00 in0.0 mm 0.21 in5.3 mm
03:20 PM 51.6°F10.9°C 51.1°F10.6°C 98% 1.2 mph SW1.9 kmh SW 2.3 mph3.7 kmh 29.78 in1008.5 mb - 0.00 in0.0 mm 0.21 in5.3 mm
03:30 PM 51.9°F11.1°C 51.3°F10.7°C 98% Calm Calm -- 29.78 in1008.5 mb - 0.00 in0.0 mm 0.21 in5.3 mm
03:40 PM 52.0°F11.1°C 51.5°F10.8°C 98% Calm Calm -- 29.78 in1008.5 mb - 0.00 in0.0 mm 0.21 in5.3 mm
03:50 PM 52.1°F11.2°C 51.6°F10.9°C 98% 2.3 mph SW3.7 kmh SW 11.5 mph18.5 kmh 29.78 in1008.5 mb - 0.00 in0.0 mm 0.21 in5.3 mm
04:00 PM 52.2°F11.2°C 51.7°F10.9°C 98% 5.8 mph SW9.3 kmh SW 12.7 mph20.4 kmh 29.77 in1008.1 mb - 0.00 in0.0 mm 0.21 in5.3 mm
04:10 PM 52.4°F11.3°C 51.9°F11.1°C 98% 3.5 mph SW5.6 kmh SW 5.8 mph9.3 kmh 29.77 in1008.1 mb - 0.00 in0.0 mm 0.21 in5.3 mm
04:20 PM 52.4°F11.3°C 51.9°F11.1°C 98% 3.5 mph SW5.6 kmh SW 9.2 mph14.8 kmh 29.77 in1008.1 mb - 0.00 in0.0 mm 0.21 in5.3 mm
04:30 PM 52.5°F11.4°C 51.7°F10.9°C 97% 3.5 mph SW5.6 kmh SW 10.4 mph16.7 kmh 29.77 in1008.1 mb - 0.00 in0.0 mm 0.21 in5.3 mm
04:40 PM 52.6°F11.4°C 51.8°F11.0°C 97% 5.8 mph SW9.3 kmh SW 10.4 mph16.7 kmh 29.77 in1008.1 mb - 0.00 in0.0 mm 0.21 in5.3 mm
04:50 PM 52.7°F11.5°C 51.9°F11.1°C 97% 5.8 mph SW9.3 kmh SW 11.5 mph18.5 kmh 29.77 in1008.1 mb - 0.00 in0.0 mm 0.21 in5.3 mm
05:00 PM 52.7°F11.5°C 51.9°F11.1°C 97% 3.5 mph SW5.6 kmh SW 12.7 mph20.4 kmh 29.77 in1008.1 mb - 0.00 in0.0 mm 0.21 in5.3 mm
05:10 PM 52.8°F11.6°C 52.0°F11.1°C 97% 8.1 mph SW13.0 kmh SW 11.5 mph18.5 kmh 29.77 in1008.1 mb - 0.00 in0.0 mm 0.21 in5.3 mm
05:20 PM 52.9°F11.6°C 52.1°F11.2°C 97% 4.6 mph SW7.4 kmh SW 13.8 mph22.2 kmh 29.77 in1008.1 mb - 0.01 in0.3 mm 0.21 in5.3 mm
05:30 PM 53.0°F11.7°C 52.2°F11.2°C 97% 6.9 mph SW11.1 kmh SW 9.2 mph14.8 kmh 29.77 in1008.1 mb - 0.01 in0.3 mm 0.22 in5.6 mm
05:40 PM 52.9°F11.6°C 52.1°F11.2°C 97% 4.6 mph SW7.4 kmh SW 11.5 mph18.5 kmh 29.77 in1008.1 mb - 0.01 in0.3 mm 0.23 in5.8 mm
05:50 PM 52.9°F11.6°C 52.1°F11.2°C 97% 3.5 mph SW5.6 kmh SW 11.5 mph18.5 kmh 29.77 in1008.1 mb - 0.01 in0.3 mm 0.24 in6.1 mm
06:00 PM 52.8°F11.6°C 52.0°F11.1°C 97% 2.3 mph SW3.7 kmh SW 3.5 mph5.6 kmh 29.76 in1007.8 mb - 0.00 in0.0 mm 0.24 in6.1 mm
06:10 PM 52.8°F11.6°C 52.0°F11.1°C 97% Calm Calm 5.8 mph9.3 kmh 29.77 in1008.1 mb - 0.00 in0.0 mm 0.24 in6.1 mm
06:20 PM 52.8°F11.6°C 52.0°F11.1°C 97% 6.9 mph SW11.1 kmh SW 9.2 mph14.8 kmh 29.77 in1008.1 mb - 0.00 in0.0 mm 0.24 in6.1 mm
06:30 PM 52.9°F11.6°C 52.1°F11.2°C 97% 6.9 mph SW11.1 kmh SW 11.5 mph18.5 kmh 29.77 in1008.1 mb - 0.00 in0.0 mm 0.24 in6.1 mm
06:40 PM 52.9°F11.6°C 51.8°F11.0°C 96% 5.8 mph SW9.3 kmh SW 12.7 mph20.4 kmh 29.77 in1008.1 mb - 0.00 in0.0 mm 0.24 in6.1 mm
06:50 PM 52.9°F11.6°C 51.8°F11.0°C 96% 9.2 mph SW14.8 kmh SW 15.0 mph24.1 kmh 29.77 in1008.1 mb - 0.00 in0.0 mm 0.24 in6.1 mm
07:00 PM 53.1°F11.7°C 52.0°F11.1°C 96% 10.4 mph SW16.7 kmh SW 16.1 mph25.9 kmh 29.77 in1008.1 mb - 0.00 in0.0 mm 0.24 in6.1 mm
07:10 PM 53.2°F11.8°C 52.1°F11.2°C 96% 6.9 mph SW11.1 kmh SW 19.6 mph31.5 kmh 29.78 in1008.5 mb - 0.00 in0.0 mm 0.24 in6.1 mm
07:20 PM 53.2°F11.8°C 51.8°F11.0°C 95% 6.9 mph SW11.1 kmh SW 11.5 mph18.5 kmh 29.77 in1008.1 mb - 0.00 in0.0 mm 0.24 in6.1 mm
07:30 PM 53.2°F11.8°C 51.8°F11.0°C 95% 1.2 mph SW1.9 kmh SW 6.9 mph11.1 kmh 29.78 in1008.5 mb - 0.00 in0.0 mm 0.24 in6.1 mm
07:40 PM 53.2°F11.8°C 51.8°F11.0°C 95% 3.5 mph SW5.6 kmh SW 10.4 mph16.7 kmh 29.78 in1008.5 mb - 0.00 in0.0 mm 0.24 in6.1 mm
07:50 PM 53.2°F11.8°C 51.8°F11.0°C 95% 2.3 mph WSW3.7 kmh WSW 10.4 mph16.7 kmh 29.78 in1008.5 mb - 0.00 in0.0 mm 0.24 in6.1 mm
08:00 PM 53.2°F11.8°C 51.8°F11.0°C 95% 3.5 mph SW5.6 kmh SW 5.8 mph9.3 kmh 29.78 in1008.5 mb - 0.00 in0.0 mm 0.24 in6.1 mm
08:10 PM 53.2°F11.8°C 51.8°F11.0°C 95% 6.9 mph SW11.1 kmh SW 10.4 mph16.7 kmh 29.78 in1008.5 mb - 0.00 in0.0 mm 0.24 in6.1 mm
08:20 PM 53.1°F11.7°C 51.7°F10.9°C 95% 5.8 mph SW9.3 kmh SW 11.5 mph18.5 kmh 29.77 in1008.1 mb - 0.00 in0.0 mm 0.24 in6.1 mm
08:30 PM 53.1°F11.7°C 51.7°F10.9°C 95% 2.3 mph WSW3.7 kmh WSW 5.8 mph9.3 kmh 29.77 in1008.1 mb - 0.00 in0.0 mm 0.24 in6.1 mm
08:40 PM 53.1°F11.7°C 51.7°F10.9°C 95% 5.8 mph SW9.3 kmh SW 11.5 mph18.5 kmh 29.77 in1008.1 mb - 0.00 in0.0 mm 0.24 in6.1 mm
08:50 PM 53.0°F11.7°C 51.6°F10.9°C 95% 5.8 mph SW9.3 kmh SW 11.5 mph18.5 kmh 29.77 in1008.1 mb - 0.00 in0.0 mm 0.24 in6.1 mm
09:00 PM 52.9°F11.6°C 51.2°F10.7°C 94% 2.3 mph SW3.7 kmh SW 11.5 mph18.5 kmh 29.77 in1008.1 mb - 0.00 in0.0 mm 0.24 in6.1 mm
09:10 PM 53.0°F11.7°C 51.3°F10.7°C 94% 3.5 mph SW5.6 kmh SW 8.1 mph13.0 kmh 29.78 in1008.5 mb - 0.00 in0.0 mm 0.24 in6.1 mm
09:20 PM 53.1°F11.7°C 51.5°F10.8°C 94% 5.8 mph SW9.3 kmh SW 9.2 mph14.8 kmh 29.78 in1008.5 mb - 0.00 in0.0 mm 0.24 in6.1 mm
09:30 PM 53.1°F11.7°C 51.1°F10.6°C 93% 2.3 mph SW3.7 kmh SW 10.4 mph16.7 kmh 29.79 in1008.8 mb - 0.00 in0.0 mm 0.24 in6.1 mm
09:40 PM 53.1°F11.7°C 51.1°F10.6°C 93% 1.2 mph SW1.9 kmh SW 5.8 mph9.3 kmh 29.80 in1009.1 mb - 0.00 in0.0 mm 0.24 in6.1 mm
09:50 PM 53.1°F11.7°C 51.1°F10.6°C 93% 4.6 mph WNW7.4 kmh WNW 15.0 mph24.1 kmh 29.80 in1009.1 mb - 0.00 in0.0 mm 0.24 in6.1 mm
10:00 PM 52.9°F11.6°C 50.3°F10.2°C 91% 8.1 mph WSW13.0 kmh WSW 13.8 mph22.2 kmh 29.80 in1009.1 mb - 0.00 in0.0 mm 0.24 in6.1 mm
10:10 PM 52.6°F11.4°C 49.4°F9.7°C 89% 9.2 mph SW14.8 kmh SW 16.1 mph25.9 kmh 29.80 in1009.1 mb - 0.00 in0.0 mm 0.24 in6.1 mm
10:20 PM 52.6°F11.4°C 49.4°F9.7°C 89% 5.8 mph SW9.3 kmh SW 11.5 mph18.5 kmh 29.80 in1009.1 mb - 0.01 in0.3 mm 0.24 in6.1 mm
10:30 PM 52.4°F11.3°C 49.3°F9.6°C 89% 9.2 mph SW14.8 kmh SW 12.7 mph20.4 kmh 29.80 in1009.1 mb - 0.01 in0.3 mm 0.24 in6.1 mm
10:40 PM 52.3°F11.3°C 49.2°F9.6°C 89% 2.3 mph WSW3.7 kmh WSW 8.1 mph13.0 kmh 29.80 in1009.1 mb - 0.00 in0.0 mm 0.24 in6.1 mm
10:50 PM 52.1°F11.2°C 49.0°F9.4°C 89% 4.6 mph WSW7.4 kmh WSW 10.4 mph16.7 kmh 29.79 in1008.8 mb - 0.00 in0.0 mm 0.24 in6.1 mm
11:00 PM 51.8°F11.0°C 49.0°F9.4°C 90% Calm Calm 3.5 mph5.6 kmh 29.80 in1009.1 mb - 0.00 in0.0 mm 0.24 in6.1 mm
11:10 PM 51.7°F10.9°C 48.9°F9.4°C 90% 6.9 mph WSW11.1 kmh WSW 10.4 mph16.7 kmh 29.80 in1009.1 mb - 0.00 in0.0 mm 0.24 in6.1 mm
11:20 PM 51.5°F10.8°C 48.7°F9.3°C 90% 4.6 mph SW7.4 kmh SW 6.9 mph11.1 kmh 29.79 in1008.8 mb - 0.00 in0.0 mm 0.24 in6.1 mm
11:30 PM 51.4°F10.8°C 48.6°F9.2°C 90% 4.6 mph SW7.4 kmh SW 9.2 mph14.8 kmh 29.79 in1008.8 mb - 0.00 in0.0 mm 0.24 in6.1 mm
11:40 PM 51.3°F10.7°C 48.5°F9.2°C 90% 2.3 mph SW3.7 kmh SW 8.1 mph13.0 kmh 29.80 in1009.1 mb - 0.00 in0.0 mm 0.24 in6.1 mm
11:50 PM 51.1°F10.6°C 48.3°F9.1°C 90% 1.2 mph SW1.9 kmh SW 10.4 mph16.7 kmh 29.80 in1009.1 mb - 0.00 in0.0 mm 0.24 in6.1 mm